Time;durP1;ratioP1;P1;durP2;ratioP2;P2;SDS_P1;SDS_P2;PMS_P1;PMS_P2;Temp;Humidity;BMP_temperature;BMP_pressure;BME280_temperature;BME280_humidity;BME280_pressure;Samples;Min_cycle;Max_cycle;Signal;HPM_P1;HPM_P2
2023/11/13 00:02:36;;;;;;;;;5.67;5.67;;;;;18.87;67.12;100548.34;146602;577;47020;-83
2023/11/13 00:05:51;;;;;;;;;11.00;8.00;;;;;18.86;66.92;100541.34;146604;581;46016;-83
2023/11/13 00:09:18;;;;;;;;;7.75;7.00;;;;;18.87;66.33;100555.34;146605;585;46010;-83
2023/11/13 00:12:14;;;;;;;;;9.33;8.67;;;;;18.89;66.92;100557.16;146604;649;46017;-75
2023/11/13 00:15:39;;;;;;;;;6.33;5.33;;;;;18.91;65.79;100555.44;146607;663;47010;-77
2023/11/13 00:18:43;;;;;;;;;6.67;6.67;;;;;18.93;67.05;100548.44;146604;644;46017;-78
2023/11/13 00:21:43;;;;;;;;;10.00;9.00;;;;;18.89;68.46;100537.88;146608;723;46010;-75
2023/11/13 00:24:48;;;;;;;;;10.33;6.67;;;;;18.84;67.25;100557.94;146606;687;46016;-75
2023/11/13 00:28:00;;;;;;;;;8.00;7.00;;;;;18.80;69.19;100567.50;146603;648;47020;-74
2023/11/13 00:30:53;;;;;;;;;7.00;7.00;;;;;18.78;70.02;100577.09;146604;673;46016;-74
2023/11/13 00:33:55;;;;;;;;;8.67;7.00;;;;;18.74;70.11;100575.28;146606;564;46021;-73
2023/11/13 00:37:18;;;;;;;;;12.75;10.25;;;;;17.13;69.25;100301.47;146602;635;46914;-74
2023/11/13 00:40:38;;;;;;;;;11.25;8.00;;;;;18.58;68.64;100586.37;146607;682;46011;-76
2023/11/13 00:43:50;;;;;;;;;10.00;8.33;;;;;18.52;70.69;100589.78;146604;726;47913;-76
2023/11/13 00:46:55;;;;;;;;;8.33;6.00;;;;;18.44;71.01;100584.44;146606;579;47010;-77
2023/11/13 00:50:11;;;;;;;;;9.00;8.00;;;;;18.33;74.99;100554.47;146604;569;47016;-78
2023/11/13 00:53:14;;;;;;;;;13.50;10.75;;;;;18.12;75.00;100564.59;146608;644;47012;-80
2023/11/13 00:56:38;;;;;;;;;10.25;8.75;;;;;16.37;72.35;100289.50;146602;630;46017;-79
2023/11/13 00:59:33;;;;;;;;;8.67;8.00;;;;;17.88;75.19;100568.53;146607;570;46010;-88
2023/11/13 01:02:30;;;;;;;;;6.25;6.25;;;;;17.85;74.92;100576.34;146605;625;46017;-83
2023/11/13 01:05:39;;;;;;;;;;;;;;;;;;;;;
2023/11/13 01:08:41;;;;;;;;;8.25;7.00;;;;;17.97;76.58;100588.78;146603;583;48012;-81
2023/11/13 01:11:40;;;;;;;;;7.50;7.00;;;;;18.02;75.39;100583.66;146606;645;46012;-81
2023/11/13 01:14:32;;;;;;;;;5.67;5.00;;;;;17.99;76.92;100584.47;146603;611;46016;-81
2023/11/13 01:17:33;;;;;;;;;10.50;8.00;;;;;17.91;76.94;100573.84;146607;635;46021;-81
2023/11/13 01:20:50;;;;;;;;;9.25;8.00;;;;;17.85;76.20;100564.97;146602;577;47016;-84
2023/11/13 01:24:00;;;;;;;;;9.00;5.67;;;;;17.76;78.60;100553.41;146607;565;47010;-80
2023/11/13 01:26:55;;;;;;;;;8.75;7.00;;;;;17.73;77.75;100565.59;146604;619;46012;-84
2023/11/13 01:29:50;;;;;;;;;5.00;5.00;;;;;17.72;77.94;100559.44;146626;583;46012;-82
2023/11/13 01:32:47;;;;;;;;;6.33;5.33;;;;;17.73;78.16;100568.22;146624;565;45017;-81
2023/11/13 01:35:52;;;;;;;;;;;;;;;;;;;;;
2023/11/13 01:38:48;;;;;;;;;5.00;5.00;;;;;17.82;78.52;100575.38;146628;621;45013;-80
2023/11/13 01:42:02;;;;;;;;;;;;;;;;;;;;;
2023/11/13 01:45:07;;;;;;;;;5.67;4.67;;;;;17.88;77.75;100558.06;146627;578;45016;-81
2023/11/13 01:48:06;;;;;;;;;4.00;4.00;;;;;17.84;79.45;100550.97;146628;601;46010;-77
2023/11/13 01:51:13;;;;;;;;;4.50;3.00;;;;;17.74;78.82;100547.25;146625;574;45016;-73
2023/11/13 01:54:32;;;;;;;;;;;;;;;;;;;;;
2023/11/13 01:57:29;;;;;;;;;3.00;3.00;;;;;17.73;77.92;100555.09;146627;598;46010;-74
2023/11/13 02:00:28;;;;;;;;;4.67;4.67;;;;;17.72;79.57;100571.66;146627;575;45913;-73
2023/11/13 02:03:34;;;;;;;;;4.67;4.67;;;;;17.72;77.37;100579.53;146628;581;46012;-76
2023/11/13 02:06:42;;;;;;;;;8.33;6.67;;;;;17.72;79.76;100571.66;146629;618;45913;-77
2023/11/13 02:09:40;;;;;;;;;8.25;7.25;;;;;17.71;79.42;100560.31;146626;642;46917;-77
2023/11/13 02:12:48;;;;;;;;;11.75;9.75;;;;;17.78;77.59;100561.34;146629;645;45020;-78
2023/11/13 02:15:54;;;;;;;;;10.75;9.25;;;;;17.81;78.81;100569.25;146619;702;46013;-82
2023/11/13 02:19:01;;;;;;;;;14.75;11.75;;;;;17.07;79.61;100454.16;146624;581;45581;-84
2023/11/13 02:22:10;;;;;;;;;;;;;;;;;;;;;
2023/11/13 02:25:06;;;;;;;;;12.50;9.75;;;;;17.76;79.61;100595.38;146624;569;46010;-83
2023/11/13 02:28:04;;;;;;;;;14.25;13.25;;;;;17.77;79.37;100601.53;146616;620;45917;-84
2023/11/13 02:30:59;;;;;;;;;9.25;9.25;;;;;17.77;79.72;100596.28;146607;591;47010;-83
2023/11/13 02:33:55;;;;;;;;;10.25;10.25;;;;;17.74;79.26;100585.72;146603;658;46034;-80
2023/11/13 02:37:03;;;;;;;;;13.25;10.00;;;;;17.73;78.80;100594.44;146606;622;46010;-80
2023/11/13 02:40:15;;;;;;;;;;;;;;;;;;;;;
2023/11/13 02:43:13;;;;;;;;;12.75;10.50;;;;;17.78;80.26;100608.53;146605;628;46010;-83
2023/11/13 02:46:06;;;;;;;;;13.00;11.50;;;;;17.76;80.61;100613.75;146602;595;46017;-79
2023/11/13 02:49:13;;;;;;;;;17.00;13.00;;;;;17.74;79.09;100604.06;146607;563;46020;-79
2023/11/13 02:52:23;;;;;;;;;15.00;13.00;;;;;16.16;78.60;100342.25;146602;581;46013;-80
2023/11/13 02:55:27;;;;;;;;;14.25;12.25;;;;;17.66;81.45;100603.00;146600;653;48010;-78
2023/11/13 02:58:33;;;;;;;;;16.00;12.25;;;;;17.60;80.57;100614.28;146601;578;47012;-80
2023/11/13 03:01:30;;;;;;;;;21.75;18.00;;;;;17.53;83.59;100614.97;146604;618;46021;-78
2023/11/13 03:04:28;;;;;;;;;16.00;16.00;;;;;17.46;81.75;100608.72;146603;611;46012;-77
2023/11/13 03:07:50;;;;;;;;;15.75;14.75;;;;;17.39;80.14;100612.09;146601;658;47010;-77
2023/11/13 03:11:02;;;;;;;;;12.25;12.00;;;;;17.36;82.49;100624.25;146603;644;47012;-76
2023/11/13 03:13:55;;;;;;;;;14.75;12.00;;;;;17.21;84.01;100624.78;146605;587;47021;-81
2023/11/13 03:16:53;;;;;;;;;16.00;13.75;;;;;17.08;82.45;100624.50;146601;581;47016;-76
2023/11/13 03:19:57;;;;;;;;;17.25;14.00;;;;;16.99;81.81;100623.41;146605;591;46010;-77
2023/11/13 03:23:05;;;;;;;;;14.75;14.00;;;;;16.90;85.62;100644.13;146603;575;46016;-77
2023/11/13 03:26:10;;;;;;;;;;;;;;;;;;;;;
2023/11/13 03:29:13;;;;;;;;;14.25;11.75;;;;;16.63;91.14;100676.59;146597;672;49016;-77
2023/11/13 03:32:21;;;;;;;;;9.00;7.75;;;;;16.53;89.53;100675.47;146603;628;48010;-77
2023/11/13 03:35:40;;;;;;;;;5.00;4.67;;;;;16.47;86.36;100680.53;146604;690;47012;-77
2023/11/13 03:38:43;;;;;;;;;7.25;5.00;;;;;16.44;85.24;100674.34;146603;592;46023;-76
2023/11/13 03:41:38;;;;;;;;;4.33;4.33;;;;;16.45;84.65;100661.31;146606;583;46016;-85
2023/11/13 03:44:42;;;;;;;;;3.00;3.00;;;;;16.44;82.82;100642.94;146608;595;46011;-84
2023/11/13 03:47:37;;;;;;;;;1.00;1.00;;;;;16.45;83.61;100613.28;146604;566;47016;-81
2023/11/13 03:50:54;;;;;;;;;2.00;2.00;;;;;16.45;80.87;100588.03;146606;570;47010;-80
2023/11/13 03:53:51;;;;;;;;;1.00;1.00;;;;;16.47;82.21;100569.72;146604;597;46017;-75
2023/11/13 03:56:58;;;;;;;;;2.00;2.00;;;;;16.50;81.28;100560.22;146605;579;47020;-77
2023/11/13 03:59:53;;;;;;;;;2.00;2.00;;;;;16.56;82.11;100547.28;146608;564;46012;-76
2023/11/13 04:03:14;;;;;;;;;0.33;0.00;;;;;16.62;82.65;100542.19;146608;597;46010;-76
2023/11/13 04:06:34;;;;;;;;;2.67;2.00;;;;;16.66;82.52;100537.91;146608;602;45042;-77
2023/11/13 04:09:26;;;;;;;;;5.00;4.75;;;;;16.69;82.19;100508.31;146606;572;46010;-74
2023/11/13 04:12:32;;;;;;;;;3.33;2.33;;;;;16.68;81.01;100501.31;146605;681;46016;-74
2023/11/13 04:15:38;;;;;;;;;1.33;1.33;;;;;16.60;83.03;100522.06;146608;591;46020;-73
2023/11/13 04:18:40;;;;;;;;;1.33;1.33;;;;;16.60;86.66;100563.94;146607;639;46917;-75
2023/11/13 04:21:45;;;;;;;;;2.33;2.00;;;;;16.53;86.82;100593.44;146609;622;46021;-76
2023/11/13 04:25:11;;;;;;;;;4.25;3.00;;;;;15.44;85.18;100434.56;146607;583;46012;-72
2023/11/13 04:28:18;;;;;;;;;5.50;4.00;;;;;16.39;83.97;100609.69;146608;573;46010;-76
2023/11/13 04:31:24;;;;;;;;;4.33;3.67;;;;;16.38;83.17;100615.75;146607;573;46915;-74
2023/11/13 04:34:23;;;;;;;;;3.00;3.00;;;;;16.41;82.92;100633.25;146607;669;47010;-74
2023/11/13 04:37:17;;;;;;;;;4.00;3.00;;;;;16.41;83.03;100641.13;146606;643;46917;-74
2023/11/13 04:40:12;;;;;;;;;2.67;2.67;;;;;16.43;82.27;100646.41;146607;577;46020;-78
2023/11/13 04:43:06;;;;;;;;;4.00;4.00;;;;;16.46;82.48;100641.25;146606;576;46917;-75
2023/11/13 04:46:09;;;;;;;;;3.00;2.67;;;;;16.45;82.64;100648.22;146606;586;46021;-75
2023/11/13 04:49:04;;;;;;;;;1.00;1.00;;;;;16.46;82.59;100649.97;146606;582;46016;-76
2023/11/13 04:52:02;;;;;;;;;5.67;4.00;;;;;16.49;81.96;100646.56;146603;565;46021;-75
2023/11/13 04:55:09;;;;;;;;;1.00;1.00;;;;;16.52;81.20;100633.56;146605;636;46012;-76
2023/11/13 04:58:14;;;;;;;;;;;;;;;;;;;;;
2023/11/13 05:01:10;;;;;;;;;3.00;3.00;;;;;16.59;81.17;100635.47;146606;564;47017;-75
2023/11/13 05:04:04;;;;;;;;;4.67;4.67;;;;;16.60;81.36;100616.28;146604;573;46020;-75
2023/11/13 05:06:59;;;;;;;;;3.33;2.67;;;;;16.60;81.55;100619.81;146606;571;46012;-75
2023/11/13 05:09:56;;;;;;;;;2.00;2.00;;;;;16.63;81.22;100639.94;146605;610;46020;-75
2023/11/13 05:13:00;;;;;;;;;3.00;2.00;;;;;16.66;81.51;100658.34;146605;633;46016;-77
2023/11/13 05:16:10;;;;;;;;;3.67;3.00;;;;;16.65;82.97;100663.53;146608;592;46042;-76
2023/11/13 05:19:10;;;;;;;;;2.00;2.00;;;;;16.67;81.80;100674.97;146606;573;47012;-78
2023/11/13 05:22:11;;;;;;;;;3.00;3.00;;;;;16.69;83.32;100694.19;146605;580;47010;-77
2023/11/13 05:25:21;;;;;;;;;7.67;7.00;;;;;16.70;82.67;100709.94;146605;645;46916;-78
2023/11/13 05:28:27;;;;;;;;;7.25;5.50;;;;;16.71;83.02;100692.50;146608;582;47020;-76
2023/11/13 05:31:34;;;;;;;;;;;;;;;;;;;;;
2023/11/13 05:34:46;;;;;;;;;4.00;4.00;;;;;16.69;81.80;100688.94;146605;604;46010;-75
2023/11/13 05:37:48;;;;;;;;;5.75;4.75;;;;;16.62;81.96;100680.06;146604;564;46917;-76
2023/11/13 05:40:49;;;;;;;;;5.33;5.00;;;;;16.58;81.89;100672.97;146603;592;46020;-77
2023/11/13 05:43:57;;;;;;;;;5.00;4.33;;;;;16.53;82.14;100683.31;146606;579;47024;-80
2023/11/13 05:47:03;;;;;;;;;6.00;5.33;;;;;16.53;82.54;100682.44;146609;573;46020;-78
2023/11/13 05:49:58;;;;;;;;;8.50;8.50;;;;;16.53;83.00;100685.94;146604;608;46917;-75
2023/11/13 05:53:05;;;;;;;;;3.67;3.00;;;;;16.50;84.26;100688.47;146606;586;48010;-79
2023/11/13 05:56:01;;;;;;;;;4.25;2.75;;;;;16.50;87.15;100687.59;146605;571;46921;-80
2023/11/13 05:59:11;;;;;;;;;3.67;3.00;;;;;16.53;85.48;100709.50;146610;639;46011;-81
2023/11/13 06:02:23;;;;;;;;;5.00;4.00;;;;;16.54;86.10;100712.97;146603;603;46016;-85
2023/11/13 06:05:34;;;;;;;;;5.00;5.00;;;;;16.60;84.19;100718.37;146606;583;46021;-81
2023/11/13 06:08:57;;;;;;;;;5.33;5.33;;;;;16.62;82.71;100722.81;146607;570;47012;-81
2023/11/13 06:12:13;;;;;;;;;8.25;5.50;;;;;16.65;84.11;100721.13;146605;627;46020;-86
2023/11/13 06:15:19;;;;;;;;;7.00;6.00;;;;;16.66;84.53;100733.38;146601;613;47917;-82
2023/11/13 06:18:18;;;;;;;;;7.00;7.00;;;;;16.69;85.46;100738.69;146605;692;47020;-81
2023/11/13 06:21:17;;;;;;;;;5.75;5.75;;;;;16.71;85.02;100747.50;146603;700;47012;-82
2023/11/13 06:24:15;;;;;;;;;11.00;9.00;;;;;16.67;86.27;100759.63;146602;589;47020;-81
2023/11/13 06:27:14;;;;;;;;;10.25;9.00;;;;;16.64;88.27;100767.38;146602;577;47016;-82
2023/11/13 06:30:13;;;;;;;;;11.00;7.25;;;;;16.55;88.49;100754.03;146607;681;46021;-81
2023/11/13 06:33:19;;;;;;;;;7.00;5.75;;;;;16.49;89.10;100749.53;146601;578;47010;-78
2023/11/13 06:36:25;;;;;;;;;6.75;6.75;;;;;14.97;87.61;100507.22;146608;571;47029;-81
2023/11/13 06:39:34;;;;;;;;;11.75;11.50;;;;;16.43;87.10;100759.81;146604;571;46016;-82
2023/11/13 06:42:30;;;;;;;;;7.00;6.00;;;;;16.43;88.07;100751.09;146603;620;47010;-83
2023/11/13 06:45:38;;;;;;;;;8.25;8.25;;;;;14.61;89.12;100441.78;146602;594;46012;-81
2023/11/13 06:48:38;;;;;;;;;5.00;5.00;;;;;16.42;90.11;100773.75;146607;614;46046;-82
2023/11/13 06:51:38;;;;;;;;;8.00;6.67;;;;;16.40;91.43;100778.94;146603;594;46017;-81
2023/11/13 06:55:12;;;;;;;;;;;;;;;;;;;;;
2023/11/13 06:58:11;;;;;;;;;5.00;5.00;;;;;16.45;88.63;100791.25;146600;590;47013;-83
2023/11/13 07:01:15;;;;;;;;;6.67;5.67;;;;;16.51;87.84;100788.81;146603;603;47010;-82
2023/11/13 07:04:15;;;;;;;;;7.50;5.00;;;;;16.52;88.64;100795.84;146604;678;46025;-83
2023/11/13 07:07:20;;;;;;;;;6.00;6.00;;;;;16.51;90.64;100805.44;146599;598;47021;-80
2023/11/13 07:10:31;;;;;;;;;9.00;8.25;;;;;16.54;90.88;100799.37;146602;605;46033;-84
2023/11/13 07:13:33;;;;;;;;;7.00;5.50;;;;;16.55;90.76;100799.44;146605;636;46021;-87
2023/11/13 07:16:26;;;;;;;;;8.50;6.25;;;;;16.62;89.85;100803.97;146600;702;47016;-80
2023/11/13 07:19:39;;;;;;;;;9.50;8.25;;;;;16.69;88.46;100788.44;146607;585;47010;-83
2023/11/13 07:22:36;;;;;;;;;6.00;6.00;;;;;16.69;89.50;100780.59;146605;594;46917;-82
2023/11/13 07:25:36;;;;;;;;;7.25;4.75;;;;;16.70;87.17;100787.59;146603;653;46020;-80
2023/11/13 07:28:47;;;;;;;;;5.00;4.00;;;;;15.08;85.75;100507.56;146604;579;46016;-81
2023/11/13 07:31:52;;;;;;;;;4.00;4.00;;;;;16.88;85.31;100801.22;146606;638;47010;-80
2023/11/13 07:34:58;;;;;;;;;;;;;;;;;;;;;
2023/11/13 07:38:05;;;;;;;;;7.25;6.00;;;;;17.67;85.57;100823.31;146607;621;46020;-84
2023/11/13 07:41:16;;;;;;;;;8.75;6.00;;;;;18.08;82.74;100822.53;146605;598;46015;-84
2023/11/13 07:44:21;;;;;;;;;5.33;5.33;;;;;18.35;81.45;100827.47;146607;570;46020;-81
2023/11/13 07:47:42;;;;;;;;;6.00;3.33;;;;;18.48;79.76;100816.41;146604;571;46016;-84
2023/11/13 07:50:37;;;;;;;;;4.00;4.00;;;;;18.69;78.84;100815.94;146603;573;47010;-77
2023/11/13 07:53:56;;;;;;;;;4.50;4.50;;;;;18.83;78.74;100811.88;146601;580;47016;-86
2023/11/13 07:57:05;;;;;;;;;6.00;4.00;;;;;18.87;78.00;100824.19;146607;574;46021;-79
2023/11/13 08:00:10;;;;;;;;;3.00;3.00;;;;;18.91;77.63;100831.31;146602;569;47014;-78
2023/11/13 08:03:08;;;;;;;;;5.50;5.50;;;;;18.85;78.34;100835.56;146605;607;47020;-77
2023/11/13 08:06:04;;;;;;;;;5.00;4.00;;;;;18.74;78.64;100843.22;146601;585;47013;-76
2023/11/13 08:08:56;;;;;;;;;3.50;2.50;;;;;18.65;78.64;100841.25;146607;579;46020;-76
2023/11/13 08:12:05;;;;;;;;;6.00;4.00;;;;;18.64;78.76;100836.87;146606;645;46037;-75
2023/11/13 08:15:28;;;;;;;;;6.00;4.00;;;;;18.70;78.24;100837.00;146606;581;46010;-75
2023/11/13 08:18:36;;;;;;;;;3.00;3.00;;;;;18.83;76.73;100830.25;146603;586;47014;-77
2023/11/13 08:21:31;;;;;;;;;4.33;3.67;;;;;19.02;76.59;100833.25;146608;676;46020;-77
2023/11/13 08:24:35;;;;;;;;;4.00;4.00;;;;;19.13;75.16;100829.09;146605;576;46012;-74
2023/11/13 08:27:36;;;;;;;;;2.67;2.33;;;;;19.23;75.03;100827.50;146604;601;46021;-74
2023/11/13 08:30:31;;;;;;;;;3.00;3.00;;;;;19.35;74.75;100818.06;146607;565;47012;-78
2023/11/13 08:33:33;;;;;;;;;3.33;3.33;;;;;19.48;72.77;100828.81;146609;663;46020;-74
2023/11/13 08:36:33;;;;;;;;;1.67;1.67;;;;;19.56;71.37;100841.22;146603;581;47012;-74
2023/11/13 08:39:31;;;;;;;;;3.33;2.00;;;;;19.62;70.67;100832.53;146605;677;47010;-72
2023/11/13 08:42:54;;;;;;;;;2.00;2.00;;;;;19.77;71.20;100827.53;146602;610;47017;-74
2023/11/13 08:45:48;;;;;;;;;2.67;2.67;;;;;19.94;70.87;100816.41;146604;611;47020;-75
2023/11/13 08:48:44;;;;;;;;;2.00;2.00;;;;;20.11;71.42;100816.63;146605;569;46013;-75
2023/11/13 08:51:42;;;;;;;;;3.00;1.33;;;;;20.18;68.83;100814.09;146605;605;47020;-75
2023/11/13 08:54:34;;;;;;;;;3.00;3.00;;;;;20.24;68.43;100803.63;146605;570;46012;-74
2023/11/13 08:57:41;;;;;;;;;1.33;1.33;;;;;20.29;68.53;100811.59;146605;590;46021;-74
2023/11/13 09:00:47;;;;;;;;;3.00;3.00;;;;;20.23;68.79;100814.16;146604;595;47915;-72
2023/11/13 09:04:02;;;;;;;;;;;;;;;;;;;;;
2023/11/13 09:07:23;;;;;;;;;4.00;3.00;;;;;20.33;67.32;100823.06;146606;601;46016;-73
2023/11/13 09:10:37;;;;;;;;;3.00;1.33;;;;;20.47;66.92;100824.13;146607;579;47010;-73
2023/11/13 09:13:37;;;;;;;;;2.00;2.00;;;;;20.51;66.60;100824.22;146601;640;47014;-72
2023/11/13 09:16:31;;;;;;;;;1.00;1.00;;;;;20.61;65.93;100826.97;146606;571;46020;-72
2023/11/13 09:19:38;;;;;;;;;2.33;2.00;;;;;20.74;66.67;100831.50;146604;576;46921;-73
2023/11/13 09:22:37;;;;;;;;;1.67;1.67;;;;;20.87;65.77;100840.41;146607;573;46010;-73
2023/11/13 09:25:35;;;;;;;;;2.00;2.00;;;;;20.95;63.68;100833.50;146606;617;46917;-74
2023/11/13 09:28:30;;;;;;;;;1.00;1.00;;;;;21.07;63.42;100833.63;146607;612;47020;-75
2023/11/13 09:31:26;;;;;;;;;2.00;2.00;;;;;21.10;62.58;100836.28;146603;580;46016;-76
2023/11/13 09:34:44;;;;;;;;;1.00;1.00;;;;;21.21;63.66;100839.00;146608;579;46021;-73
2023/11/13 09:37:53;;;;;;;;;1.67;1.67;;;;;21.19;61.96;100833.75;146605;685;46016;-75
2023/11/13 09:40:46;;;;;;;;;2.00;2.00;;;;;21.23;63.68;100830.25;146601;629;47011;-75
2023/11/13 09:43:50;;;;;;;;;1.67;1.67;;;;;21.31;63.34;100837.34;146606;613;46917;-75
2023/11/13 09:46:50;;;;;;;;;1.33;1.33;;;;;21.40;63.30;100838.38;146606;658;47010;-74
2023/11/13 09:50:21;;;;;;;;;0.67;0.67;;;;;21.48;62.66;100825.22;146603;564;47014;-74
2023/11/13 09:53:47;;;;;;;;;1.00;1.00;;;;;21.62;62.93;100830.59;146602;599;47020;-76
2023/11/13 09:56:48;;;;;;;;;6.00;4.00;;;;;21.71;63.92;100833.31;146609;640;46016;-85
2023/11/13 09:59:51;;;;;;;;;2.00;2.00;;;;;21.81;63.50;100821.09;146609;610;46020;-83
2023/11/13 10:03:15;;;;;;;;;3.67;2.00;;;;;20.25;62.31;100543.88;146604;592;46014;-85
2023/11/13 10:06:23;;;;;;;;;3.00;2.00;;;;;21.94;62.45;100832.63;146607;687;46030;-86
2023/11/13 10:09:24;;;;;;;;;2.33;2.33;;;;;21.93;61.28;100834.34;146603;609;46014;-86
2023/11/13 10:12:23;;;;;;;;;2.00;2.00;;;;;21.96;61.17;100842.28;146606;566;46010;-83
2023/11/13 10:15:18;;;;;;;;;2.33;1.00;;;;;22.01;60.13;100834.41;146608;590;46016;-85
2023/11/13 10:18:15;;;;;;;;;3.00;2.00;;;;;22.07;60.57;100840.59;146602;715;47010;-86
2023/11/13 10:21:45;;;;;;;;;2.33;1.00;;;;;22.07;60.76;100840.59;146606;614;46012;-84
2023/11/13 10:24:46;;;;;;;;;2.00;2.00;;;;;22.06;60.56;100833.56;146607;574;46013;-87
2023/11/13 10:27:41;;;;;;;;;4.00;3.00;;;;;22.13;61.01;100837.13;146601;582;47012;-89
2023/11/13 10:31:13;;;;;;;;;2.67;1.00;;;;;22.23;60.07;100846.00;146607;582;47020;-83
2023/11/13 10:34:16;;;;;;;;;3.00;2.00;;;;;22.21;56.73;100851.31;146603;639;47017;-83
2023/11/13 10:37:24;;;;;;;;;1.00;1.00;;;;;22.31;57.88;100849.59;146609;636;46010;-82
2023/11/13 10:40:18;;;;;;;;;1.00;1.00;;;;;22.37;55.33;100849.63;146604;569;46014;-85
2023/11/13 10:43:48;;;;;;;;;1.00;0.00;;;;;20.80;55.32;100585.59;146608;596;46030;-88
2023/11/13 10:46:46;;;;;;;;;3.67;3.00;;;;;22.36;55.20;100861.03;146604;582;46015;-85
2023/11/13 10:49:45;;;;;;;;;1.67;1.00;;;;;22.40;55.76;100859.28;146605;572;46021;-83
2023/11/13 10:52:43;;;;;;;;;1.00;0.00;;;;;22.40;55.48;100860.22;146602;569;46915;-83
2023/11/13 10:56:02;;;;;;;;;2.00;2.00;;;;;20.93;57.39;100590.09;146609;571;46021;-82
2023/11/13 10:59:01;;;;;;;;;2.67;1.67;;;;;22.60;56.70;100855.88;146602;664;46031;-82
2023/11/13 11:01:59;;;;;;;;;2.00;1.00;;;;;22.63;55.94;100849.72;146606;564;47010;-86
2023/11/13 11:05:11;;;;;;;;;1.00;1.00;;;;;22.76;56.59;100850.66;146604;626;46012;-84
2023/11/13 11:08:08;;;;;;;;;2.00;1.00;;;;;22.81;55.78;100846.28;146607;569;46020;-86
2023/11/13 11:11:11;;;;;;;;;2.00;1.00;;;;;22.87;56.43;100833.06;146606;631;46016;-84
2023/11/13 11:14:36;;;;;;;;;3.33;1.00;;;;;21.35;55.77;100572.78;146610;665;46010;-87
2023/11/13 11:17:45;;;;;;;;;1.00;1.00;;;;;22.92;55.38;100851.56;146603;578;47017;-85
2023/11/13 11:21:31;;;;;;;;;1.00;1.00;;;;;21.40;54.48;100578.97;146605;673;47010;-86
2023/11/13 11:25:04;;;;;;;;;1.00;0.00;;;;;22.90;53.71;100835.72;146604;640;47015;-83
2023/11/13 11:28:08;;;;;;;;;1.00;1.00;;;;;22.91;55.75;100841.88;146609;679;46010;-84
2023/11/13 11:31:04;;;;;;;;;1.00;1.00;;;;;22.93;53.53;100837.47;146606;571;46012;-86
2023/11/13 11:34:03;;;;;;;;;0.00;0.00;;;;;22.94;55.25;100832.22;146607;571;46010;-85
2023/11/13 11:37:06;;;;;;;;;0.00;0.00;;;;;22.98;54.75;100841.94;146606;649;46016;-81
2023/11/13 11:40:12;;;;;;;;;1.00;0.00;;;;;23.02;53.68;100833.13;146607;608;48021;-85
2023/11/13 11:43:26;;;;;;;;;1.33;1.00;;;;;23.09;52.60;100841.97;146602;627;47917;-80
2023/11/13 11:46:25;;;;;;;;;2.67;1.67;;;;;23.15;53.50;100847.28;146608;679;46020;-89
2023/11/13 11:49:37;;;;;;;;;0.67;0.67;;;;;23.23;55.41;100834.03;146603;659;46017;-84
2023/11/13 11:52:57;;;;;;;;;0.67;0.67;;;;;23.39;54.17;100835.81;146605;643;47010;-83
2023/11/13 11:56:02;;;;;;;;;0.00;0.00;;;;;23.46;51.82;100837.59;146606;568;46017;-88
2023/11/13 11:59:21;;;;;;;;;0.00;0.00;;;;;23.44;50.14;100838.47;146605;576;47012;-86
2023/11/13 12:02:13;;;;;;;;;1.00;1.00;;;;;23.50;52.79;100841.13;146604;578;47016;-89
2023/11/13 12:05:21;;;;;;;;;1.67;0.00;;;;;23.56;51.21;100849.06;146609;574;46010;-90
2023/11/13 12:08:34;;;;;;;;;0.00;0.00;;;;;23.55;51.73;100844.66;146606;672;46025;-88
2023/11/13 12:12:02;;;;;;;;;;;;;;;;;;;;;
2023/11/13 12:14:54;;;;;;;;;0.00;0.00;;;;;23.52;50.41;100852.59;146704;569;46023;-91
2023/11/13 12:18:00;;;;;;;;;1.00;1.00;;;;;23.60;52.72;100858.75;146620;606;47012;-85
2023/11/13 12:20:59;;;;;;;;;0.67;0.67;;;;;23.73;52.58;100849.06;146621;599;46021;-86
2023/11/13 12:23:56;;;;;;;;;1.00;1.00;;;;;23.88;49.93;100862.28;146619;575;46016;-87
2023/11/13 12:26:58;;;;;;;;;1.67;0.00;;;;;23.97;51.21;100851.69;146622;597;47010;-78
2023/11/13 12:30:16;;;;;;;;;0.00;0.00;;;;;24.05;49.84;100849.06;146616;621;46016;-82
2023/11/13 12:33:21;;;;;;;;;0.00;0.00;;;;;23.26;49.88;100702.63;146619;569;47020;-84
2023/11/13 12:36:36;;;;;;;;;1.00;0.00;;;;;24.14;49.08;100856.97;146619;622;46017;-83
2023/11/13 12:39:45;;;;;;;;;3.00;1.33;;;;;24.30;51.23;100856.91;146621;575;46020;-84
2023/11/13 12:43:12;;;;;;;;;1.00;1.00;;;;;24.52;51.39;100855.13;146617;595;47013;-84
2023/11/13 12:46:17;;;;;;;;;2.33;2.33;;;;;24.34;48.95;100784.47;146622;588;47020;-84
2023/11/13 12:49:32;;;;;;;;;1.00;1.00;;;;;24.70;51.06;100854.13;146616;584;46016;-88
2023/11/13 12:52:30;;;;;;;;;1.00;1.00;;;;;24.79;50.27;100849.66;146626;647;46012;-84
2023/11/13 12:55:53;;;;;;;;;;;;;;;;;;;;;
2023/11/13 12:58:57;;;;;;;;;1.67;0.67;;;;;25.39;49.00;100846.69;146623;577;46010;-82
2023/11/13 13:01:57;;;;;;;;;1.00;1.00;;;;;25.68;47.36;100846.44;146619;627;47012;-84
2023/11/13 13:04:57;;;;;;;;;2.00;0.00;;;;;25.79;47.10;100846.31;146622;564;47010;-83
2023/11/13 13:08:05;;;;;;;;;0.67;0.00;;;;;25.90;47.77;100848.94;146616;576;47016;-83
2023/11/13 13:11:01;;;;;;;;;1.00;0.00;;;;;25.98;45.71;100849.72;146624;664;46010;-82
2023/11/13 13:13:54;;;;;;;;;0.67;0.67;;;;;25.98;44.90;100844.41;146620;640;46016;-83
2023/11/13 13:16:54;;;;;;;;;1.00;1.00;;;;;25.98;46.44;100849.72;146623;597;46010;-82
2023/11/13 13:20:03;;;;;;;;;2.00;1.00;;;;;26.05;47.75;100861.19;146614;593;46017;-83
2023/11/13 13:23:06;;;;;;;;;0.00;0.00;;;;;26.12;47.73;100858.44;146620;602;46020;-84
2023/11/13 13:26:15;;;;;;;;;1.00;1.00;;;;;26.24;46.90;100860.09;146618;602;46016;-85
2023/11/13 13:29:15;;;;;;;;;0.00;0.00;;;;;26.25;46.33;100864.50;146619;631;46020;-81
2023/11/13 13:32:13;;;;;;;;;0.00;0.00;;;;;26.20;47.37;100868.97;146618;630;47016;-78
2023/11/13 13:35:27;;;;;;;;;1.00;1.00;;;;;26.16;47.99;100883.19;146620;575;47010;-78
2023/11/13 13:38:33;;;;;;;;;0.00;0.00;;;;;26.09;48.11;100882.38;146618;608;46016;-78
2023/11/13 13:41:42;;;;;;;;;0.00;0.00;;;;;26.05;48.78;100888.63;146624;649;46010;-79
2023/11/13 13:44:35;;;;;;;;;0.00;0.00;;;;;26.05;45.41;100874.47;146620;665;46016;-79
2023/11/13 13:47:36;;;;;;;;;1.33;1.00;;;;;26.00;47.15;100878.03;146624;572;46020;-78
2023/11/13 13:50:37;;;;;;;;;0.00;0.00;;;;;25.94;46.41;100878.09;146615;583;47017;-79
2023/11/13 13:54:11;;;;;;;;;0.33;0.00;;;;;25.85;48.82;100888.78;146623;598;47010;-79
2023/11/13 13:57:04;;;;;;;;;0.00;0.00;;;;;25.73;46.38;100894.19;146618;569;47012;-78
2023/11/13 13:59:59;;;;;;;;;0.00;0.00;;;;;25.54;46.95;100893.44;146621;658;47010;-79
2023/11/13 14:03:03;;;;;;;;;0.00;0.00;;;;;25.30;46.79;100883.91;146620;693;47016;-78
2023/11/13 14:06:07;;;;;;;;;1.00;0.00;;;;;25.01;46.66;100894.66;146623;564;46010;-78
2023/11/13 14:09:20;;;;;;;;;0.00;0.00;;;;;24.67;50.24;100902.75;146620;573;46016;-78
2023/11/13 14:12:17;;;;;;;;;1.00;1.00;;;;;24.36;48.97;100901.94;146620;618;46011;-78
2023/11/13 14:15:20;;;;;;;;;1.00;1.00;;;;;24.06;49.75;100908.19;146617;669;46016;-78
2023/11/13 14:18:16;;;;;;;;;0.67;0.67;;;;;23.83;50.61;100916.13;146622;646;46020;-78
2023/11/13 14:21:38;;;;;;;;;3.00;2.00;;;;;23.64;52.43;100925.81;146619;723;47016;-78
2023/11/13 14:24:37;;;;;;;;;1.00;1.00;;;;;23.46;51.57;100924.03;146622;563;46020;-78
2023/11/13 14:27:46;;;;;;;;;0.67;0.67;;;;;23.30;50.81;100920.47;146617;585;46917;-79
2023/11/13 14:30:45;;;;;;;;;0.00;0.00;;;;;23.14;52.28;100923.97;146618;589;47010;-78
2023/11/13 14:33:52;;;;;;;;;1.00;1.00;;;;;22.98;51.52;100928.31;146619;566;46016;-78
2023/11/13 14:36:49;;;;;;;;;1.00;0.00;;;;;22.84;51.40;100938.81;146623;744;46020;-77
2023/11/13 14:39:50;;;;;;;;;1.00;0.00;;;;;22.74;53.09;100936.97;146617;610;46016;-76
2023/11/13 14:42:49;;;;;;;;;0.00;0.00;;;;;22.60;54.65;100943.09;146619;588;46020;-76